Terminal Aerodrome Forecast
Issued by NWS Greer, SC

Home | Current Version | Previous Version | Text Only | Print | Product List | Glossary On
Versions: 1 2 3 4 5 6 7 8 9 10 11 12 13 14 15 16 17 18 19 20 21 22 23 24 25 26 27 28 29 30
824
FTUS42 KGSP 190543
TAFAVL
TAF
KAVL 190543Z 1906/2006 16015G25KT P6SM VCSH OVC024
     FM190900 16011G19KT P6SM -SHRA SCT008 OVC014
     FM191300 17012G20KT 3SM -SHRA BR OVC017
      TEMPO 1913/1916 1SM TS BR OVC006CB
     FM191800 17014G23KT 3SM -SHRA OVC026
     FM192300 19013G21KT 4SM BR BKN028 PROB30 1923/2002 2SM -SHRA
      OVC015=

USA.gov is the U.S. government's official web portal to all federal, state and local government web resources and services.